createdAt,value
2019-02-22T00:02:33.963Z,100616.01
2019-02-22T00:05:01.770Z,100614.27
2019-02-22T00:07:29.533Z,100612.89
2019-02-22T00:09:57.329Z,100608.53
2019-02-22T00:12:25.135Z,100608.33
2019-02-22T00:14:52.922Z,100614.16
2019-02-22T00:17:20.763Z,100621.33
2019-02-22T00:19:48.772Z,100626.16
2019-02-22T00:22:16.706Z,100629.70
2019-02-22T00:24:44.436Z,100627.48
2019-02-22T00:27:12.314Z,100631.02
2019-02-22T00:29:40.237Z,100628.06
2019-02-22T00:32:08.058Z,100627.94
2019-02-22T00:34:35.845Z,100625.97
2019-02-22T00:37:03.683Z,100629.00
2019-02-22T00:39:31.456Z,100617.33
2019-02-22T00:41:59.317Z,100620.47
2019-02-22T00:44:27.149Z,100619.16
2019-02-22T00:46:54.893Z,100621.33
2019-02-22T00:49:28.215Z,100615.05
2019-02-22T00:51:56.025Z,100619.42
2019-02-22T00:54:23.881Z,100620.23
2019-02-22T00:56:51.666Z,100620.75
2019-02-22T00:59:19.566Z,100624.58
2019-02-22T01:01:47.414Z,100623.77
2019-02-22T01:04:15.186Z,100623.13
2019-02-22T01:06:42.975Z,100632.57
2019-02-22T01:09:21.109Z,100638.91
2019-02-22T01:11:48.917Z,100631.33
2019-02-22T01:14:16.666Z,100631.90
2019-02-22T01:16:44.447Z,100638.14
2019-02-22T01:19:12.250Z,100635.88
2019-02-22T01:21:40.041Z,100639.02
2019-02-22T01:24:07.839Z,100647.30
2019-02-22T01:26:35.653Z,100650.41
2019-02-22T01:29:03.431Z,100654.55
2019-02-22T01:31:31.304Z,100650.73
2019-02-22T01:33:59.140Z,100651.70
2019-02-22T01:36:26.893Z,100655.36
2019-02-22T01:38:54.698Z,100648.08
2019-02-22T01:41:22.489Z,100655.52
2019-02-22T01:43:50.304Z,100656.80
2019-02-22T01:46:18.096Z,100659.09
2019-02-22T01:48:45.885Z,100664.55
2019-02-22T01:51:13.661Z,100665.72
2019-02-22T01:53:41.536Z,100671.27
2019-02-22T01:56:09.308Z,100670.31
2019-02-22T01:58:48.046Z,100667.48
2019-02-22T02:01:06.815Z,100662.26
2019-02-22T02:03:34.612Z,100674.81
2019-02-22T02:06:02.405Z,100671.84
2019-02-22T02:08:30.144Z,100669.41
2019-02-22T02:10:57.935Z,100662.66
2019-02-22T02:13:25.730Z,100666.30
2019-02-22T02:15:53.515Z,100665.31
2019-02-22T02:18:21.389Z,100677.37
2019-02-22T02:20:49.242Z,100680.36
2019-02-22T02:23:18.296Z,100686.12
2019-02-22T02:25:46.088Z,100675.77
2019-02-22T02:28:13.926Z,100677.89
2019-02-22T02:30:41.725Z,100691.91
2019-02-22T02:33:09.514Z,100695.40
2019-02-22T02:35:37.322Z,100694.69
2019-02-22T02:38:05.250Z,100699.65
2019-02-22T02:40:33.283Z,100700.48
2019-02-22T02:43:01.091Z,100702.10
2019-02-22T02:45:28.871Z,100707.52
2019-02-22T02:47:56.648Z,100707.64
2019-02-22T02:50:24.632Z,100710.58
2019-02-22T02:52:52.438Z,100709.21
2019-02-22T02:55:26.987Z,100705.22
2019-02-22T02:57:54.812Z,100708.86
2019-02-22T03:00:22.805Z,100703.72
2019-02-22T03:02:50.551Z,100709.11
2019-02-22T03:05:18.340Z,100710.09
2019-02-22T03:07:47.178Z,100715.41
2019-02-22T03:10:15.099Z,100714.41
2019-02-22T03:12:42.849Z,100715.66
2019-02-22T03:15:11.851Z,100717.78
2019-02-22T03:17:39.619Z,100716.81
2019-02-22T03:20:07.950Z,100717.72
2019-02-22T03:22:35.779Z,100716.39
2019-02-22T03:25:04.149Z,100719.52
2019-02-22T03:27:32.031Z,100723.28
2019-02-22T03:29:59.785Z,100723.95
2019-02-22T03:32:27.588Z,100729.52
2019-02-22T03:34:55.382Z,100728.22
2019-02-22T03:37:23.196Z,100728.51
2019-02-22T03:39:51.182Z,100728.39
2019-02-22T03:42:18.994Z,100735.37
2019-02-22T03:44:46.778Z,100734.18
2019-02-22T03:47:14.566Z,100734.67
2019-02-22T03:49:42.332Z,100738.61
2019-02-22T03:52:30.540Z,100751.48
2019-02-22T03:54:58.334Z,100747.83
2019-02-22T03:57:26.152Z,100746.28
2019-02-22T03:59:54.128Z,100747.66
2019-02-22T04:02:21.901Z,100753.06
2019-02-22T04:04:49.683Z,100758.97
2019-02-22T04:07:17.568Z,100764.83
2019-02-22T04:09:45.378Z,100774.20
2019-02-22T04:12:13.159Z,100775.00
2019-02-22T04:14:40.991Z,100779.73
2019-02-22T04:17:11.422Z,100780.02
2019-02-22T04:19:38.436Z,100780.68
2019-02-22T04:22:06.369Z,100779.83
2019-02-22T04:24:34.188Z,100781.80
2019-02-22T04:27:01.957Z,100774.39
2019-02-22T04:29:29.763Z,100778.81
2019-02-22T04:31:57.561Z,100770.72
2019-02-22T04:34:25.392Z,100766.97
2019-02-22T04:36:53.228Z,100772.89
2019-02-22T04:39:21.007Z,100777.46
2019-02-22T04:41:57.639Z,100767.92
2019-02-22T04:44:18.505Z,100772.16
2019-02-22T04:46:46.318Z,100773.36
2019-02-22T04:49:14.126Z,100781.30
2019-02-22T04:51:41.948Z,100785.75
2019-02-22T04:54:09.724Z,100784.20
2019-02-22T04:56:37.629Z,100780.08
2019-02-22T04:59:05.450Z,100790.47
2019-02-22T05:01:43.612Z,100789.98
2019-02-22T05:04:11.377Z,100789.31
2019-02-22T05:06:39.201Z,100784.05
2019-02-22T05:09:06.998Z,100779.75
2019-02-22T05:11:34.803Z,100787.82
2019-02-22T05:14:02.614Z,100789.45
2019-02-22T05:16:30.406Z,100795.05
2019-02-22T05:18:58.263Z,100801.37
2019-02-22T05:21:26.032Z,100808.98
2019-02-22T05:23:53.840Z,100810.16
2019-02-22T05:26:21.653Z,100817.36
2019-02-22T05:28:49.571Z,100818.32
2019-02-22T05:31:17.439Z,100815.13
2019-02-22T05:33:46.434Z,100821.32
2019-02-22T05:36:14.259Z,100823.70
2019-02-22T05:38:42.076Z,100819.34
2019-02-22T05:41:29.351Z,100830.00
2019-02-22T05:43:57.134Z,100833.80
2019-02-22T05:46:24.938Z,100837.23
2019-02-22T05:48:52.756Z,100842.55
2019-02-22T05:51:20.583Z,100845.38
2019-02-22T05:53:48.444Z,100856.29
2019-02-22T05:56:16.374Z,100854.04
2019-02-22T05:58:44.200Z,100857.35
2019-02-22T06:01:12.010Z,100860.30
2019-02-22T06:03:39.857Z,100859.31
2019-02-22T06:06:07.716Z,100857.17
2019-02-22T06:08:35.515Z,100867.89
2019-02-22T06:11:03.343Z,100873.67
2019-02-22T06:13:31.140Z,100882.39
2019-02-22T06:15:59.010Z,100882.92
2019-02-22T06:18:26.894Z,100882.81
2019-02-22T06:21:09.902Z,100885.37
2019-02-22T06:23:37.695Z,100884.52
2019-02-22T06:26:05.478Z,100890.74
2019-02-22T06:28:33.321Z,100888.27
2019-02-22T06:31:01.120Z,100888.79
2019-02-22T06:33:28.922Z,100902.31
2019-02-22T06:35:56.731Z,100894.48
2019-02-22T06:38:24.486Z,100895.54
2019-02-22T06:40:52.282Z,100905.78
2019-02-22T06:43:20.125Z,100909.31
2019-02-22T06:45:48.137Z,100907.98
2019-02-22T06:48:15.960Z,100916.23
2019-02-22T06:50:43.885Z,100926.16
2019-02-22T06:53:11.657Z,100932.03
2019-02-22T06:55:39.498Z,100928.34
2019-02-22T06:58:07.364Z,100931.58
2019-02-22T07:00:35.537Z,100926.59
2019-02-22T07:03:03.306Z,100927.53
2019-02-22T07:05:31.128Z,100931.71
2019-02-22T07:07:58.871Z,100940.33
2019-02-22T07:10:26.905Z,100946.70
2019-02-22T07:12:58.853Z,100951.22
2019-02-22T07:15:26.689Z,100953.59
2019-02-22T07:17:54.490Z,100960.73
2019-02-22T07:20:41.783Z,100964.09
2019-02-22T07:23:09.522Z,100964.92
2019-02-22T07:25:37.292Z,100973.66
2019-02-22T07:28:05.048Z,100975.61
2019-02-22T07:30:32.859Z,100985.45
2019-02-22T07:33:00.666Z,100985.82
2019-02-22T07:35:28.468Z,100990.63
2019-02-22T07:37:56.242Z,100996.58
2019-02-22T07:40:24.105Z,101001.33
2019-02-22T07:42:51.869Z,101004.33
2019-02-22T07:45:19.700Z,101009.45
2019-02-22T07:47:47.478Z,101012.89
2019-02-22T07:50:15.393Z,101016.39
2019-02-22T07:52:45.210Z,101011.40
2019-02-22T07:55:12.871Z,101014.98
2019-02-22T07:57:40.667Z,101012.98
2019-02-22T08:00:12.266Z,101018.61
2019-02-22T08:02:41.836Z,101017.69
2019-02-22T08:05:09.657Z,101014.05
2019-02-22T08:07:40.139Z,101013.16
2019-02-22T08:10:15.979Z,101018.97
2019-02-22T08:12:43.815Z,101019.87
2019-02-22T08:15:11.925Z,101026.21
2019-02-22T08:17:44.025Z,101025.09
2019-02-22T08:20:14.152Z,101031.71
2019-02-22T08:22:41.936Z,101030.14
2019-02-22T08:25:09.774Z,101034.32
2019-02-22T08:27:40.023Z,101034.93
2019-02-22T08:30:08.463Z,101045.83
2019-02-22T08:32:37.277Z,101044.61
2019-02-22T08:35:05.323Z,101040.44
2019-02-22T08:37:33.144Z,101047.30
2019-02-22T08:40:02.347Z,101043.70
2019-02-22T08:42:30.755Z,101047.65
2019-02-22T08:44:58.588Z,101043.92
2019-02-22T08:47:26.381Z,101047.31
2019-02-22T08:49:54.139Z,101043.44
2019-02-22T08:52:21.982Z,101044.92
2019-02-22T08:54:49.809Z,101050.20
2019-02-22T08:57:17.616Z,101039.84
2019-02-22T08:59:45.473Z,101048.99
2019-02-22T09:02:13.268Z,101050.83
2019-02-22T09:04:46.588Z,101051.17
2019-02-22T09:07:15.528Z,101055.82
2019-02-22T09:09:48.141Z,101060.16
2019-02-22T09:12:15.975Z,101062.12
2019-02-22T09:14:46.282Z,101067.34
2019-02-22T09:17:13.882Z,101068.67
2019-02-22T09:19:44.821Z,101073.02
2019-02-22T09:22:22.409Z,101081.37
2019-02-22T09:24:47.928Z,101084.67
2019-02-22T09:27:19.467Z,101089.96
2019-02-22T09:29:58.182Z,101089.92
2019-02-22T09:32:19.021Z,101100.10
2019-02-22T09:34:52.575Z,101103.08
2019-02-22T09:37:20.397Z,101104.87
2019-02-22T09:39:48.292Z,101104.70
2019-02-22T09:42:16.164Z,101107.19
2019-02-22T09:44:43.965Z,101108.59
2019-02-22T09:47:11.762Z,101112.01
2019-02-22T09:49:39.630Z,101109.88
2019-02-22T09:52:07.475Z,101114.34
2019-02-22T09:54:38.018Z,101114.53
2019-02-22T09:57:05.979Z,101122.02
2019-02-22T09:59:48.942Z,101120.84
2019-02-22T10:02:17.735Z,101121.58
2019-02-22T10:04:54.462Z,101127.30
2019-02-22T10:07:15.268Z,101127.85
2019-02-22T10:09:43.043Z,101125.75
2019-02-22T10:12:10.962Z,101124.78
2019-02-22T10:14:38.784Z,101123.83
2019-02-22T10:17:06.587Z,101123.71
2019-02-22T10:19:36.019Z,101128.37
2019-02-22T10:22:03.852Z,101131.90
2019-02-22T10:24:37.797Z,101125.27
2019-02-22T10:27:05.627Z,101128.48
2019-02-22T10:29:34.627Z,101131.11
2019-02-22T10:32:07.612Z,101136.73
2019-02-22T10:34:37.731Z,101140.20
2019-02-22T10:37:16.740Z,101141.23
2019-02-22T10:39:44.885Z,101145.20
2019-02-22T10:42:12.679Z,101119.98
2019-02-22T10:44:40.471Z,101143.22
2019-02-22T10:47:08.254Z,101148.06
2019-02-22T10:49:41.361Z,101146.56
2019-02-22T10:52:09.166Z,101146.23
2019-02-22T10:54:36.895Z,101149.72
2019-02-22T10:57:04.705Z,101151.04
2019-02-22T10:59:32.649Z,101156.17
2019-02-22T11:02:00.466Z,101157.23
2019-02-22T11:04:28.236Z,101157.08
2019-02-22T11:06:56.051Z,101155.63
2019-02-22T11:09:24.027Z,101144.66
2019-02-22T11:11:51.838Z,101160.30
2019-02-22T11:14:29.243Z,101158.33
2019-02-22T11:16:51.559Z,101155.13
2019-02-22T11:19:34.458Z,101155.02
2019-02-22T11:22:02.280Z,101157.78
2019-02-22T11:24:30.097Z,101157.15
2019-02-22T11:26:57.909Z,101156.27
2019-02-22T11:29:25.786Z,101158.94
2019-02-22T11:31:53.581Z,101152.50
2019-02-22T11:34:21.395Z,101149.55
2019-02-22T11:36:49.234Z,101148.65
2019-02-22T11:39:17.044Z,101158.61
2019-02-22T11:41:44.784Z,101161.69
2019-02-22T11:44:12.588Z,101160.08
2019-02-22T11:46:40.420Z,101159.78
2019-02-22T11:49:08.234Z,101155.39
2019-02-22T11:51:51.134Z,101167.23
2019-02-22T11:54:18.924Z,101167.98
2019-02-22T11:56:46.719Z,101169.22
2019-02-22T11:59:15.256Z,101172.07
2019-02-22T12:01:43.652Z,101181.11
2019-02-22T12:04:11.456Z,101183.44
2019-02-22T12:06:39.276Z,101186.21
2019-02-22T12:09:07.114Z,101195.14
2019-02-22T12:11:59.700Z,101198.44
2019-02-22T12:14:27.475Z,101195.94
2019-02-22T12:16:55.292Z,101196.00
2019-02-22T12:19:23.233Z,101192.06
2019-02-22T12:21:51.041Z,101190.56
2019-02-22T12:24:18.875Z,101192.05
2019-02-22T12:26:48.370Z,101196.04
2019-02-22T12:29:40.802Z,101190.21
2019-02-22T12:32:08.679Z,101190.89
2019-02-22T12:34:36.469Z,101197.03
2019-02-22T12:37:04.410Z,101204.17
2019-02-22T12:39:32.245Z,101203.98
2019-02-22T12:42:00.119Z,101213.83
2019-02-22T12:44:27.919Z,101211.55
2019-02-22T12:46:55.737Z,101218.39
2019-02-22T12:49:23.529Z,101216.33
2019-02-22T12:51:51.325Z,101222.97
2019-02-22T12:54:19.198Z,101226.41
2019-02-22T12:56:56.603Z,101226.20
2019-02-22T12:59:16.658Z,101241.66
2019-02-22T13:01:44.481Z,101222.48
2019-02-22T13:04:12.288Z,101226.30
2019-02-22T13:06:40.122Z,101234.50
2019-02-22T13:09:09.018Z,101231.58
2019-02-22T13:11:41.993Z,101239.08
2019-02-22T13:14:09.800Z,101235.39
2019-02-22T13:16:37.606Z,101235.27
2019-02-22T13:19:05.424Z,101241.70
2019-02-22T13:21:38.263Z,101243.21
2019-02-22T13:24:06.090Z,101242.38
2019-02-22T13:26:33.864Z,101245.37
2019-02-22T13:29:01.708Z,101244.89
2019-02-22T13:31:34.782Z,101245.20
2019-02-22T13:34:02.602Z,101238.56
2019-02-22T13:36:30.406Z,101237.25
2019-02-22T13:38:58.196Z,101251.21
2019-02-22T13:41:26.038Z,101252.35
2019-02-22T13:43:53.857Z,101253.52
2019-02-22T13:46:21.704Z,101248.84
2019-02-22T13:48:49.476Z,101248.54
2019-02-22T13:51:17.524Z,101249.20
2019-02-22T13:53:45.341Z,101250.21
2019-02-22T13:56:13.257Z,101256.03
2019-02-22T13:58:41.140Z,101255.01
2019-02-22T14:01:24.006Z,101254.36
2019-02-22T14:03:51.826Z,101262.36
2019-02-22T14:06:19.697Z,101257.02
2019-02-22T14:08:47.578Z,101247.42
2019-02-22T14:11:15.453Z,101242.28
2019-02-22T14:13:43.270Z,101247.73
2019-02-22T14:16:11.070Z,101254.08
2019-02-22T14:18:39.320Z,101266.42
2019-02-22T14:21:07.147Z,101266.84
2019-02-22T14:23:35.617Z,101263.87
2019-02-22T14:26:04.014Z,101264.41
2019-02-22T14:28:32.340Z,101270.72
2019-02-22T14:31:00.887Z,101267.64
2019-02-22T14:33:54.155Z,101276.61
2019-02-22T14:36:22.342Z,101284.67
2019-02-22T14:38:51.670Z,101292.81
2019-02-22T14:41:31.728Z,101298.23
2019-02-22T14:43:59.915Z,101299.50
2019-02-22T14:46:28.331Z,101306.90
2019-02-22T14:48:56.162Z,101310.02
2019-02-22T14:51:34.451Z,101314.05
2019-02-22T14:54:02.776Z,101312.11
2019-02-22T14:56:30.946Z,101312.47
2019-02-22T14:58:59.265Z,101314.58
2019-02-22T15:01:27.192Z,101319.76
2019-02-22T15:03:54.957Z,101325.09
2019-02-22T15:06:40.390Z,101322.50
2019-02-22T15:09:08.389Z,101328.64
2019-02-22T15:11:36.295Z,101329.25
2019-02-22T15:14:04.105Z,101331.97
2019-02-22T15:17:07.029Z,101329.95
2019-02-22T15:19:34.917Z,101328.56
2019-02-22T15:22:02.833Z,101333.55
2019-02-22T15:24:32.989Z,101333.20
2019-02-22T15:27:00.498Z,101331.70
2019-02-22T15:29:28.807Z,101334.87
2019-02-22T15:31:58.088Z,101337.06
2019-02-22T15:34:25.875Z,101338.87
2019-02-22T15:36:53.732Z,101337.94
2019-02-22T15:39:21.735Z,101336.55
2019-02-22T15:41:49.536Z,101344.98
2019-02-22T15:44:19.673Z,101340.95
2019-02-22T15:46:49.432Z,101342.94
2019-02-22T15:49:21.482Z,101347.07
2019-02-22T15:51:49.339Z,101347.89
2019-02-22T15:54:17.237Z,101357.59
2019-02-22T15:56:47.047Z,101358.83
2019-02-22T15:59:14.965Z,101360.92
2019-02-22T16:01:42.894Z,101362.11
2019-02-22T16:04:30.331Z,101362.30
2019-02-22T16:06:58.530Z,101358.87
2019-02-22T16:09:26.715Z,101364.80
2019-02-22T16:11:54.558Z,101360.69
2019-02-22T16:14:22.407Z,101357.05
2019-02-22T16:16:50.242Z,101363.44
2019-02-22T16:19:18.773Z,101369.62
2019-02-22T16:21:47.764Z,101373.25
2019-02-22T16:24:15.609Z,101367.73
2019-02-22T16:26:43.606Z,101371.45
2019-02-22T16:29:11.710Z,101378.25
2019-02-22T16:31:39.509Z,101383.66
2019-02-22T16:34:07.324Z,101397.02
2019-02-22T16:36:35.536Z,101397.16
2019-02-22T16:39:05.218Z,101395.24
2019-02-22T16:41:38.319Z,101400.78
2019-02-22T16:44:06.134Z,101406.48
2019-02-22T16:46:35.144Z,101409.22
2019-02-22T16:49:03.181Z,101407.45
2019-02-22T16:51:30.967Z,101406.20
2019-02-22T16:53:58.780Z,101401.06
2019-02-22T16:56:26.703Z,101402.77
2019-02-22T16:58:54.514Z,101401.02
2019-02-22T17:01:22.303Z,101404.06
2019-02-22T17:03:50.126Z,101404.17
2019-02-22T17:06:18.307Z,101404.60
2019-02-22T17:08:46.160Z,101407.67
2019-02-22T17:11:14.118Z,101408.03
2019-02-22T17:13:42.360Z,101413.38
2019-02-22T17:16:10.196Z,101417.37
2019-02-22T17:18:38.443Z,101414.30
2019-02-22T17:21:06.426Z,101411.70
2019-02-22T17:23:34.456Z,101422.44
2019-02-22T17:26:02.481Z,101421.75
2019-02-22T17:28:30.301Z,101418.34
2019-02-22T17:30:58.105Z,101426.41
2019-02-22T17:33:25.925Z,101431.24
2019-02-22T17:35:53.745Z,101439.72
2019-02-22T17:38:21.563Z,101444.80
2019-02-22T17:40:54.736Z,101447.40
2019-02-22T17:43:22.566Z,101454.50
2019-02-22T17:45:50.424Z,101461.68
2019-02-22T17:48:18.223Z,101465.71
2019-02-22T17:50:46.056Z,101467.19
2019-02-22T17:53:13.876Z,101472.52
2019-02-22T17:55:41.734Z,101477.86
2019-02-22T17:58:09.869Z,101476.12
2019-02-22T18:00:48.177Z,101477.98
2019-02-22T18:03:15.974Z,101484.92
2019-02-22T18:05:43.942Z,101481.23
2019-02-22T18:08:11.738Z,101487.08
2019-02-22T18:10:44.826Z,101487.78
2019-02-22T18:13:12.665Z,101487.95
2019-02-22T18:15:40.458Z,101488.95
2019-02-22T18:18:08.297Z,101494.34
2019-02-22T18:20:36.139Z,101495.32
2019-02-22T18:23:04.013Z,101498.59
2019-02-22T18:25:32.007Z,101497.82
2019-02-22T18:27:59.997Z,101506.73
2019-02-22T18:30:28.090Z,101510.64
2019-02-22T18:32:55.876Z,101513.38
2019-02-22T18:35:23.711Z,101516.81
2019-02-22T18:37:51.484Z,101520.05
2019-02-22T18:40:19.375Z,101522.44
2019-02-22T18:42:47.207Z,101521.03
2019-02-22T18:45:15.018Z,101520.08
2019-02-22T18:47:46.964Z,101520.70
2019-02-22T18:50:20.728Z,101527.99
2019-02-22T18:52:49.137Z,101528.06
2019-02-22T18:55:16.954Z,101529.92
2019-02-22T18:57:53.880Z,101535.85
2019-02-22T19:00:27.019Z,101530.20
2019-02-22T19:02:59.530Z,101527.08
2019-02-22T19:05:28.473Z,101528.06
2019-02-22T19:07:58.045Z,101536.38
2019-02-22T19:10:26.833Z,101534.29
2019-02-22T19:12:55.295Z,101543.05
2019-02-22T19:15:23.125Z,101549.48
2019-02-22T19:17:56.933Z,101550.37
2019-02-22T19:20:30.413Z,101557.25
2019-02-22T19:22:59.252Z,101560.48
2019-02-22T19:25:32.278Z,101564.14
2019-02-22T19:28:01.825Z,101580.06
2019-02-22T19:30:30.112Z,101576.89
2019-02-22T19:32:57.922Z,101583.59
2019-02-22T19:35:25.973Z,101584.95
2019-02-22T19:37:56.740Z,101582.30
2019-02-22T19:40:24.719Z,101593.44
2019-02-22T19:43:03.716Z,101599.37
2019-02-22T19:45:31.633Z,101605.95
2019-02-22T19:47:59.578Z,101581.91
2019-02-22T19:50:27.475Z,101616.52
2019-02-22T19:52:55.316Z,101617.97
2019-02-22T19:55:23.204Z,101618.94
2019-02-22T19:57:51.084Z,101613.51
2019-02-22T20:00:18.942Z,101616.59
2019-02-22T20:02:46.689Z,101625.76
2019-02-22T20:05:14.717Z,101626.17
2019-02-22T20:07:42.505Z,101630.10
2019-02-22T20:10:17.827Z,101628.02
2019-02-22T20:12:42.507Z,101634.20
2019-02-22T20:15:12.540Z,101637.91
2019-02-22T20:17:40.475Z,101640.89
2019-02-22T20:20:11.141Z,101645.09
2019-02-22T20:22:38.916Z,101651.30
2019-02-22T20:25:07.089Z,101654.42
2019-02-22T20:27:34.956Z,101650.05
2019-02-22T20:30:03.156Z,101658.00
2019-02-22T20:32:30.932Z,101659.23
2019-02-22T20:34:58.824Z,101657.28
2019-02-22T20:37:26.617Z,101665.66
2019-02-22T20:39:54.512Z,101674.47
2019-02-22T20:42:22.313Z,101677.81
2019-02-22T20:44:50.133Z,101680.97
2019-02-22T20:47:17.997Z,101680.02
2019-02-22T20:49:45.893Z,101681.53
2019-02-22T20:52:13.739Z,101685.28
2019-02-22T20:54:41.642Z,101686.88
2019-02-22T20:57:09.442Z,101694.48
2019-02-22T20:59:37.294Z,101696.77
2019-02-22T21:02:05.137Z,101699.66
2019-02-22T21:04:33.085Z,101705.00
2019-02-22T21:07:01.086Z,101672.78
2019-02-22T21:09:28.904Z,101716.50
2019-02-22T21:11:56.690Z,101714.45
2019-02-22T21:14:24.573Z,101711.20
2019-02-22T21:16:52.342Z,101709.89
2019-02-22T21:19:20.164Z,101710.06
2019-02-22T21:21:48.147Z,101705.36
2019-02-22T21:24:15.974Z,101694.95
2019-02-22T21:26:43.804Z,101705.41
2019-02-22T21:29:11.926Z,101692.69
2019-02-22T21:31:39.819Z,101693.23
2019-02-22T21:34:07.658Z,101699.28
2019-02-22T21:36:35.447Z,101701.69
2019-02-22T21:39:03.816Z,101704.67
2019-02-22T21:41:32.940Z,101708.89
2019-02-22T21:44:01.005Z,101716.08
2019-02-22T21:46:28.968Z,101716.38
2019-02-22T21:48:56.846Z,101724.18
2019-02-22T21:51:24.907Z,101725.03
2019-02-22T21:53:52.703Z,101726.84
2019-02-22T21:56:20.565Z,101728.79
2019-02-22T21:58:48.969Z,101735.05
2019-02-22T22:01:16.878Z,101736.52
2019-02-22T22:03:44.718Z,101741.70
2019-02-22T22:06:12.560Z,101745.37
2019-02-22T22:08:40.418Z,101743.92
2019-02-22T22:11:08.182Z,101742.86
2019-02-22T22:13:36.074Z,101735.95
2019-02-22T22:16:03.920Z,101737.85
2019-02-22T22:18:38.740Z,101700.64
2019-02-22T22:21:01.469Z,101726.16
2019-02-22T22:23:29.250Z,101731.73
2019-02-22T22:25:57.127Z,101733.91
2019-02-22T22:28:24.939Z,101736.27
2019-02-22T22:30:53.400Z,101726.78
2019-02-22T22:33:21.285Z,101732.10
2019-02-22T22:35:49.147Z,101732.80
2019-02-22T22:38:16.965Z,101735.33
2019-02-22T22:40:44.796Z,101739.27
2019-02-22T22:43:12.980Z,101742.47
2019-02-22T22:45:40.848Z,101745.33
2019-02-22T22:48:08.683Z,101735.84
2019-02-22T22:50:36.529Z,101738.50
2019-02-22T22:53:04.337Z,101740.09
2019-02-22T22:55:32.155Z,101745.00
2019-02-22T22:58:00.029Z,101745.98
2019-02-22T23:00:57.548Z,101744.07
2019-02-22T23:03:25.405Z,101748.48
2019-02-22T23:05:53.190Z,101746.23
2019-02-22T23:08:20.983Z,101744.88
2019-02-22T23:10:49.110Z,101751.81
2019-02-22T23:13:17.059Z,101762.25
2019-02-22T23:15:44.904Z,101772.11
2019-02-22T23:18:14.197Z,101781.27
2019-02-22T23:20:42.164Z,101773.12
2019-02-22T23:23:10.057Z,101775.42
2019-02-22T23:25:37.979Z,101769.77
2019-02-22T23:28:15.517Z,101770.71
2019-02-22T23:30:43.473Z,101768.97
2019-02-22T23:33:11.340Z,101767.15
2019-02-22T23:35:39.220Z,101774.38
2019-02-22T23:38:07.092Z,101779.39
2019-02-22T23:40:34.941Z,101779.78
2019-02-22T23:43:02.713Z,101774.75
2019-02-22T23:45:33.071Z,101774.44
2019-02-22T23:48:00.899Z,101779.39
2019-02-22T23:50:29.044Z,101783.26
2019-02-22T23:52:56.879Z,101789.35
2019-02-22T23:55:24.755Z,101797.73
2019-02-22T23:57:52.607Z,101797.52
